Time;durP1;ratioP1;P1;durP2;ratioP2;P2;SDS_P1;SDS_P2;PMS_P1;PMS_P2;Temp;Humidity;BMP_temperature;BMP_pressure;BME280_temperature;BME280_humidity;BME280_pressure;Samples;Min_cycle;Max_cycle;Signal;HPM_P1;HPM_P2
2021/07/06 00:01:13;;;;;;;12.15;10.82;;;17.50;91.30;;;;;;5012403;28;20605;-51
2021/07/06 00:03:40;;;;;;;15.02;11.43;;;17.50;91.30;;;;;;4977308;28;20399;-52
2021/07/06 00:06:06;;;;;;;13.27;10.77;;;17.50;91.20;;;;;;5010608;28;20162;-51
2021/07/06 00:08:32;;;;;;;15.25;10.77;;;17.50;91.10;;;;;;5012963;28;20066;-53
2021/07/06 00:10:57;;;;;;;13.98;11.13;;;17.50;91.10;;;;;;5014943;28;20502;-52
2021/07/06 00:13:23;;;;;;;11.70;10.32;;;17.50;91.00;;;;;;5013703;28;20041;-50
2021/07/06 00:15:48;;;;;;;16.50;10.82;;;17.50;91.00;;;;;;5013831;28;20038;-49
2021/07/06 00:18:14;;;;;;;13.52;10.57;;;17.50;91.00;;;;;;5013326;28;20040;-51
2021/07/06 00:20:40;;;;;;;11.77;10.55;;;17.40;91.10;;;;;;5014504;28;20072;-50
2021/07/06 00:23:07;;;;;;;12.05;10.25;;;17.40;91.10;;;;;;5014148;28;20422;-52
2021/07/06 00:25:36;;;;;;;11.73;10.45;;;17.40;91.10;;;;;;5010614;28;20049;-52
2021/07/06 00:28:02;;;;;;;12.70;10.93;;;17.40;91.20;;;;;;5009281;28;20038;-50
2021/07/06 00:30:29;;;;;;;13.13;10.02;;;17.40;91.10;;;;;;5011331;28;20084;-47
2021/07/06 00:32:56;;;;;;;12.63;11.18;;;17.50;91.00;;;;;;5012984;28;20375;-52
2021/07/06 00:35:22;;;;;;;15.07;10.98;;;17.50;91.00;;;;;;5023303;28;20052;-50
2021/07/06 00:37:48;;;;;;;15.50;10.13;;;17.50;90.90;;;;;;5013315;28;20054;-53
2021/07/06 00:40:14;;;;;;;16.08;11.68;;;17.50;90.90;;;;;;5012670;28;20069;-54
2021/07/06 00:42:42;;;;;;;14.27;10.98;;;17.50;90.80;;;;;;5017449;28;20049;-54
2021/07/06 00:45:10;;;;;;;13.25;10.40;;;17.50;90.90;;;;;;5013203;28;20116;-53
2021/07/06 00:47:37;;;;;;;14.95;11.02;;;17.50;91.00;;;;;;5009333;28;20458;-52
2021/07/06 00:50:18;;;;;;;14.90;11.18;;;17.40;91.10;;;;;;5017979;28;20095;-53
2021/07/06 00:52:44;;;;;;;12.57;11.07;;;17.40;91.20;;;;;;5005954;28;20057;-51
2021/07/06 00:55:11;;;;;;;14.52;10.82;;;17.40;91.20;;;;;;4996674;28;20053;-51
2021/07/06 00:57:37;;;;;;;12.68;10.85;;;17.40;91.30;;;;;;5011014;28;20045;-48
2021/07/06 01:00:16;;;;;;;16.15;10.95;;;17.40;91.30;;;;;;5013842;28;20121;-49
2021/07/06 01:02:43;;;;;;;12.15;10.25;;;17.40;91.40;;;;;;5011629;28;20056;-48
2021/07/06 01:05:13;;;;;;;16.98;10.77;;;17.50;91.30;;;;;;5012444;28;20046;-51
2021/07/06 01:07:39;;;;;;;12.00;10.70;;;17.50;91.30;;;;;;5010486;28;20080;-51
2021/07/06 01:10:07;;;;;;;13.75;10.50;;;17.50;91.30;;;;;;4995775;28;20041;-50
2021/07/06 01:12:33;;;;;;;13.73;10.90;;;17.50;91.30;;;;;;5004126;28;20600;-50
2021/07/06 01:15:05;;;;;;;16.63;11.05;;;17.50;91.50;;;;;;5016921;28;20057;-52
2021/07/06 01:17:31;;;;;;;17.40;11.52;;;17.50;91.50;;;;;;5010202;28;20089;-51
2021/07/06 01:19:58;;;;;;;14.13;10.38;;;17.50;91.50;;;;;;5008606;28;20069;-51
2021/07/06 01:22:33;;;;;;;12.85;10.30;;;17.50;91.60;;;;;;5015213;28;20414;-50
2021/07/06 01:25:01;;;;;;;15.32;10.73;;;17.40;91.70;;;;;;5018223;28;20057;-49
2021/07/06 01:27:27;;;;;;;15.27;10.60;;;17.40;91.80;;;;;;5011556;28;20045;-49
2021/07/06 01:29:54;;;;;;;15.90;10.90;;;17.50;91.90;;;;;;4995022;28;20046;-51
2021/07/06 01:32:22;;;;;;;13.48;10.18;;;17.50;92.00;;;;;;5011735;28;20129;-51
2021/07/06 01:34:49;;;;;;;12.18;9.73;;;17.50;92.10;;;;;;5012956;28;20050;-50
2021/07/06 01:37:19;;;;;;;14.95;10.63;;;17.50;92.20;;;;;;5008581;28;20467;-55
2021/07/06 01:39:47;;;;;;;12.70;10.18;;;17.50;92.20;;;;;;4999800;28;20049;-51
2021/07/06 01:42:31;;;;;;;14.60;10.82;;;17.50;92.30;;;;;;5024102;28;20072;-48
2021/07/06 01:45:08;;;;;;;14.93;10.88;;;17.50;92.30;;;;;;5009943;28;20065;-51
2021/07/06 01:47:47;;;;;;;13.75;10.40;;;17.50;92.40;;;;;;5002845;28;20042;-48
2021/07/06 01:50:18;;;;;;;13.40;10.88;;;17.40;92.60;;;;;;5012346;28;20498;-49
2021/07/06 01:52:46;;;;;;;;;;;17.50;92.70;;;;;;5008974;28;20045;-52
2021/07/06 01:55:14;;;;;;;12.27;9.52;;;17.40;92.80;;;;;;5011238;28;20298;-51
2021/07/06 01:57:42;;;;;;;13.68;9.80;;;17.50;92.80;;;;;;5007081;28;20073;-49
2021/07/06 02:00:10;;;;;;;15.27;10.48;;;17.50;92.80;;;;;;5012185;28;20069;-50
2021/07/06 02:02:40;;;;;;;15.87;9.60;;;17.50;93.00;;;;;;5012296;28;20073;-51
2021/07/06 02:05:30;;;;;;;12.77;9.48;;;17.60;93.00;;;;;;5010206;28;20436;-51
2021/07/06 02:07:57;;;;;;;11.75;8.55;;;17.60;92.90;;;;;;5005971;28;20157;-50
2021/07/06 02:10:25;;;;;;;10.57;9.13;;;17.60;93.00;;;;;;5012409;28;20068;-51
2021/07/06 02:12:51;;;;;;;11.20;8.40;;;17.70;93.00;;;;;;5023070;28;20053;-52
2021/07/06 02:15:17;;;;;;;13.05;8.85;;;17.70;92.80;;;;;;5011193;28;20473;-53
2021/07/06 02:17:44;;;;;;;12.23;8.82;;;17.70;92.70;;;;;;5006298;28;20058;-53
2021/07/06 02:20:13;;;;;;;9.85;8.57;;;17.70;92.80;;;;;;4997094;28;20038;-49
2021/07/06 02:22:41;;;;;;;12.02;8.43;;;17.70;92.80;;;;;;5010930;28;20081;-53
2021/07/06 02:25:08;;;;;;;11.15;8.10;;;17.70;92.80;;;;;;4996199;28;20042;-49
2021/07/06 02:27:35;;;;;;;13.07;8.07;;;17.70;92.80;;;;;;5017713;28;20041;-51
2021/07/06 02:30:00;;;;;;;9.63;7.57;;;17.70;92.90;;;;;;5007620;28;20125;-51
2021/07/06 02:32:26;;;;;;;10.05;8.25;;;17.70;92.90;;;;;;5010346;28;20120;-52
2021/07/06 02:34:52;;;;;;;12.07;9.18;;;17.70;93.00;;;;;;5010824;28;20096;-51
2021/07/06 02:37:18;;;;;;;11.55;9.43;;;17.70;93.00;;;;;;5014373;28;20694;-51
2021/07/06 02:39:45;;;;;;;9.40;7.60;;;17.70;92.90;;;;;;5011581;28;20045;-50
2021/07/06 02:42:11;;;;;;;9.48;7.63;;;17.70;92.90;;;;;;5020283;28;20299;-51
2021/07/06 02:44:37;;;;;;;10.68;7.20;;;17.70;92.80;;;;;;5019595;28;20561;-49
2021/07/06 02:47:03;;;;;;;11.25;7.72;;;17.70;92.80;;;;;;5006056;28;20025;-51
2021/07/06 02:49:28;;;;;;;11.60;7.20;;;17.70;92.80;;;;;;5011495;28;20057;-51
2021/07/06 02:51:54;;;;;;;10.13;6.70;;;17.80;92.90;;;;;;5011941;28;20548;-51
2021/07/06 02:54:20;;;;;;;9.98;7.50;;;17.80;92.90;;;;;;5008364;28;20030;-53
2021/07/06 02:56:46;;;;;;;8.93;6.70;;;17.80;92.80;;;;;;5009687;28;20072;-51
2021/07/06 02:59:11;;;;;;;9.38;6.88;;;17.90;92.90;;;;;;5011310;28;20128;-52
2021/07/06 03:01:37;;;;;;;10.90;7.07;;;17.90;93.00;;;;;;5012237;28;20038;-52
2021/07/06 03:04:03;;;;;;;8.68;6.82;;;17.90;92.90;;;;;;5010173;28;20038;-51
2021/07/06 03:06:30;;;;;;;13.70;7.00;;;17.90;92.90;;;;;;5012411;28;20042;-50
2021/07/06 03:08:56;;;;;;;9.43;6.90;;;18.00;93.00;;;;;;5011867;28;20045;-48
2021/07/06 03:11:23;;;;;;;9.63;6.30;;;18.00;92.90;;;;;;5011986;28;20070;-51
2021/07/06 03:13:49;;;;;;;9.93;6.43;;;18.00;92.80;;;;;;4977857;28;20057;-51
2021/07/06 03:16:15;;;;;;;11.23;6.57;;;18.00;92.80;;;;;;5008250;28;20050;-48
2021/07/06 03:18:40;;;;;;;12.27;6.90;;;18.00;92.90;;;;;;5012161;28;20561;-51
2021/07/06 03:21:06;;;;;;;7.85;5.85;;;18.00;92.90;;;;;;5011511;28;20045;-53
2021/07/06 03:23:32;;;;;;;10.32;5.90;;;18.00;92.90;;;;;;5012334;28;20050;-52
2021/07/06 03:25:58;;;;;;;9.38;5.68;;;18.00;93.00;;;;;;5010789;28;20096;-50
2021/07/06 03:28:24;;;;;;;8.80;5.82;;;18.00;93.10;;;;;;5011552;28;20485;-52
2021/07/06 03:30:50;;;;;;;7.35;5.30;;;18.10;92.90;;;;;;5012098;28;20042;-50
2021/07/06 03:33:16;;;;;;;8.63;5.40;;;18.10;92.80;;;;;;5011783;28;20049;-51
2021/07/06 03:35:42;;;;;;;10.10;5.50;;;18.10;92.70;;;;;;5006624;28;20045;-51
2021/07/06 03:38:14;;;;;;;7.65;4.95;;;18.10;92.70;;;;;;5012773;28;20106;-51
2021/07/06 03:40:41;;;;;;;10.00;5.43;;;18.10;92.80;;;;;;5012712;28;20387;-52
2021/07/06 03:43:08;;;;;;;6.32;4.55;;;18.20;92.70;;;;;;5012089;28;20053;-52
2021/07/06 03:45:34;;;;;;;6.40;4.78;;;18.10;92.70;;;;;;5018703;28;20410;-53
2021/07/06 03:48:00;;;;;;;8.05;4.88;;;18.10;92.70;;;;;;5011509;28;20053;-53
2021/07/06 03:50:27;;;;;;;6.07;4.35;;;18.10;92.70;;;;;;5011422;28;20042;-53
2021/07/06 03:52:58;;;;;;;8.20;4.38;;;18.00;92.80;;;;;;5010257;28;20057;-53
2021/07/06 03:55:25;;;;;;;6.25;4.10;;;18.00;92.90;;;;;;5007626;28;20478;-53
2021/07/06 03:57:52;;;;;;;6.85;4.18;;;18.00;93.00;;;;;;5011375;28;20092;-53
2021/07/06 04:00:28;;;;;;;8.68;4.35;;;17.90;93.00;;;;;;5011258;28;20391;-52
2021/07/06 04:02:56;;;;;;;5.05;3.97;;;18.00;93.00;;;;;;5011775;28;20038;-52
2021/07/06 04:05:21;;;;;;;7.13;3.75;;;18.00;93.00;;;;;;5010131;28;20441;-53
2021/07/06 04:07:48;;;;;;;5.68;3.85;;;18.00;92.90;;;;;;5011444;28;20046;-52
2021/07/06 04:10:16;;;;;;;5.25;3.53;;;18.00;92.90;;;;;;5010916;28;20042;-53
2021/07/06 04:12:47;;;;;;;6.60;4.18;;;18.00;92.90;;;;;;4993946;28;20509;-53
2021/07/06 04:15:14;;;;;;;8.43;3.95;;;18.10;92.80;;;;;;5009889;28;20395;-48
2021/07/06 04:17:40;;;;;;;6.80;3.60;;;18.00;92.90;;;;;;5011566;28;20050;-54
2021/07/06 04:20:07;;;;;;;6.90;3.17;;;18.10;92.90;;;;;;5011714;28;20103;-53
2021/07/06 04:22:35;;;;;;;4.32;2.95;;;18.10;92.90;;;;;;5010133;28;20049;-49
2021/07/06 04:25:01;;;;;;;6.88;3.30;;;18.10;92.80;;;;;;4990534;28;20104;-49
2021/07/06 04:27:27;;;;;;;3.67;2.83;;;18.10;92.70;;;;;;5004790;28;20502;-50
2021/07/06 04:29:53;;;;;;;4.88;2.63;;;18.10;92.70;;;;;;5011149;28;20042;-51
2021/07/06 04:32:19;;;;;;;5.10;2.83;;;18.10;92.80;;;;;;5011156;28;20046;-49
2021/07/06 04:34:45;;;;;;;7.30;3.15;;;18.10;92.80;;;;;;5007944;28;20394;-50
2021/07/06 04:37:12;;;;;;;4.30;3.10;;;18.10;92.90;;;;;;5012332;28;20548;-53
2021/07/06 04:39:38;;;;;;;6.45;2.92;;;18.20;92.60;;;;;;5014424;28;20045;-52
2021/07/06 04:42:04;;;;;;;7.35;3.28;;;18.20;92.70;;;;;;5014838;28;20442;-52
2021/07/06 04:44:34;;;;;;;6.75;3.00;;;18.20;92.70;;;;;;5009980;28;20104;-50
2021/07/06 04:47:00;;;;;;;4.28;3.03;;;18.20;92.90;;;;;;5013089;28;20038;-53
2021/07/06 04:49:28;;;;;;;4.15;2.63;;;18.30;92.80;;;;;;5013342;28;20117;-52
2021/07/06 04:51:56;;;;;;;4.93;2.78;;;18.30;92.90;;;;;;5013335;28;20050;-52
2021/07/06 04:54:25;;;;;;;4.35;2.70;;;18.30;92.70;;;;;;5011352;28;20596;-51
2021/07/06 04:56:52;;;;;;;5.60;2.95;;;18.30;92.80;;;;;;5010715;28;20089;-51
2021/07/06 04:59:19;;;;;;;5.60;3.10;;;18.30;92.90;;;;;;5000400;28;20060;-53
2021/07/06 05:01:45;;;;;;;6.43;2.80;;;18.40;92.70;;;;;;5014594;28;20067;-52
2021/07/06 05:04:14;;;;;;;5.78;2.78;;;18.40;92.80;;;;;;5013066;28;20364;-53
2021/07/06 05:06:41;;;;;;;4.22;2.72;;;18.50;92.60;;;;;;5007443;28;20048;-52
2021/07/06 05:09:08;;;;;;;4.28;2.63;;;18.50;92.80;;;;;;5014433;28;20054;-53
2021/07/06 05:11:34;;;;;;;4.13;2.40;;;18.60;92.60;;;;;;4995484;28;20461;-51
2021/07/06 05:14:01;;;;;;;5.22;2.63;;;18.80;92.60;;;;;;5013934;28;20050;-53
2021/07/06 05:16:27;;;;;;;5.28;2.80;;;18.90;92.20;;;;;;5012362;28;20042;-53
2021/07/06 05:18:53;;;;;;;3.92;2.75;;;19.00;91.80;;;;;;5013696;28;20041;-50
2021/07/06 05:21:19;;;;;;;6.53;2.95;;;19.10;91.80;;;;;;4980969;28;20060;-53
2021/07/06 05:23:45;;;;;;;6.28;2.80;;;19.00;91.80;;;;;;5014172;28;20553;-53
2021/07/06 05:26:12;;;;;;;4.15;2.97;;;19.00;91.80;;;;;;5013532;28;20029;-51
2021/07/06 05:28:38;;;;;;;5.40;2.65;;;19.00;91.80;;;;;;5013141;28;20050;-50
2021/07/06 05:31:05;;;;;;;3.85;2.60;;;19.00;91.50;;;;;;5020181;28;20041;-53
2021/07/06 05:33:31;;;;;;;6.97;3.03;;;19.00;91.60;;;;;;5022531;28;20045;-53
2021/07/06 05:35:56;;;;;;;3.65;2.22;;;19.00;91.70;;;;;;5013457;28;20042;-50
2021/07/06 05:38:22;;;;;;;3.95;2.78;;;18.90;91.80;;;;;;5013082;28;20045;-51
2021/07/06 05:40:55;;;;;;;9.35;2.92;;;18.90;92.00;;;;;;5007283;28;20490;-52
2021/07/06 05:43:22;;;;;;;6.20;2.67;;;18.90;92.10;;;;;;5013695;28;20057;-50
2021/07/06 05:45:55;;;;;;;6.75;2.78;;;18.80;92.40;;;;;;5002642;28;20104;-51
2021/07/06 05:48:21;;;;;;;6.10;2.92;;;18.90;92.60;;;;;;5001705;28;20041;-48
2021/07/06 05:50:47;;;;;;;6.75;3.00;;;18.80;93.20;;;;;;5008627;28;20073;-50
2021/07/06 05:53:13;;;;;;;7.22;3.20;;;18.60;93.40;;;;;;5013630;28;20052;-51
2021/07/06 05:55:40;;;;;;;6.35;2.92;;;18.50;93.80;;;;;;5011146;28;20034;-49
2021/07/06 05:58:14;;;;;;;5.22;2.95;;;18.50;94.00;;;;;;5009263;28;20073;-48
2021/07/06 06:00:40;;;;;;;5.97;2.60;;;18.40;94.10;;;;;;5006357;28;20049;-52
2021/07/06 06:03:11;;;;;;;4.13;2.70;;;18.40;94.30;;;;;;5006930;28;20041;-54
2021/07/06 06:05:38;;;;;;;5.97;3.13;;;18.50;94.10;;;;;;5010545;28;20045;-51
2021/07/06 06:08:05;;;;;;;7.47;3.13;;;18.40;94.60;;;;;;5013871;28;20033;-53
2021/07/06 06:10:30;;;;;;;6.13;2.63;;;18.40;94.60;;;;;;5007059;28;20364;-54
2021/07/06 06:12:56;;;;;;;5.47;3.03;;;18.30;95.00;;;;;;5010209;28;20065;-52
2021/07/06 06:15:22;;;;;;;6.15;3.40;;;18.40;94.80;;;;;;5010881;28;20041;-53
2021/07/06 06:17:49;;;;;;;4.70;3.17;;;18.30;95.00;;;;;;5015564;28;20504;-54
2021/07/06 06:20:16;;;;;;;4.78;2.90;;;18.30;95.30;;;;;;4987992;28;20442;-53
2021/07/06 06:22:41;;;;;;;4.82;3.35;;;18.30;95.10;;;;;;5015935;28;20092;-54
2021/07/06 06:25:08;;;;;;;5.05;3.28;;;18.30;95.30;;;;;;5016563;28;20042;-53
2021/07/06 06:27:34;;;;;;;6.70;3.10;;;18.30;95.30;;;;;;5012650;28;20042;-53
2021/07/06 06:30:00;;;;;;;7.07;3.20;;;18.30;95.00;;;;;;5013358;28;20038;-54
2021/07/06 06:32:26;;;;;;;4.63;3.13;;;18.30;95.20;;;;;;5010430;28;20104;-53
2021/07/06 06:34:53;;;;;;;11.73;3.60;;;18.30;95.40;;;;;;5008785;28;20037;-52
2021/07/06 06:37:20;;;;;;;7.57;3.67;;;18.20;95.40;;;;;;5007339;28;20042;-52
2021/07/06 06:39:46;;;;;;;8.10;3.10;;;18.20;95.60;;;;;;5014108;28;20482;-53
2021/07/06 06:42:14;;;;;;;5.18;3.47;;;18.30;95.40;;;;;;5011754;28;20080;-50
2021/07/06 06:44:39;;;;;;;5.57;3.60;;;18.30;95.40;;;;;;5009928;28;20525;-53
2021/07/06 06:47:05;;;;;;;6.50;2.70;;;18.30;95.40;;;;;;5011481;28;20038;-52
2021/07/06 06:49:32;;;;;;;3.97;3.03;;;18.40;95.10;;;;;;5011408;28;20495;-54
2021/07/06 06:52:02;;;;;;;5.70;3.08;;;18.50;94.90;;;;;;5010294;28;20053;-50
2021/07/06 06:54:27;;;;;;;6.03;3.05;;;18.50;95.10;;;;;;5008282;28;20402;-54
2021/07/06 06:56:53;;;;;;;6.18;2.90;;;18.50;94.90;;;;;;5010992;28;20045;-54
2021/07/06 06:59:19;;;;;;;5.60;2.72;;;18.50;95.00;;;;;;5010995;28;20042;-54
2021/07/06 07:01:45;;;;;;;8.27;2.97;;;18.60;94.80;;;;;;5009899;28;20045;-50
2021/07/06 07:04:11;;;;;;;5.43;3.10;;;18.60;94.90;;;;;;5010037;28;20041;-52
2021/07/06 07:06:36;;;;;;;5.03;2.53;;;18.60;94.80;;;;;;5010106;28;20033;-54
2021/07/06 07:09:09;;;;;;;6.38;2.83;;;18.60;94.70;;;;;;5011066;28;20042;-52
2021/07/06 07:11:35;;;;;;;6.05;3.15;;;18.70;94.70;;;;;;5010745;28;20045;-51
2021/07/06 07:14:01;;;;;;;5.32;3.03;;;18.80;94.40;;;;;;5011236;28;20034;-51
2021/07/06 07:16:28;;;;;;;4.85;2.67;;;18.80;94.30;;;;;;5010751;28;20517;-50
2021/07/06 07:18:54;;;;;;;4.38;2.70;;;18.80;94.40;;;;;;5011286;28;20125;-53
2021/07/06 07:21:23;;;;;;;4.45;2.65;;;18.90;94.10;;;;;;5011244;28;20449;-52
2021/07/06 07:23:49;;;;;;;6.03;2.72;;;18.90;94.10;;;;;;5009920;28;20490;-50
2021/07/06 07:26:15;;;;;;;4.03;2.67;;;18.90;94.10;;;;;;5007990;28;20057;-50
2021/07/06 07:28:42;;;;;;;7.50;2.90;;;18.90;94.10;;;;;;5011107;28;20038;-49
2021/07/06 07:31:08;;;;;;;7.15;2.80;;;18.90;94.10;;;;;;5011188;28;20557;-53
2021/07/06 07:33:34;;;;;;;6.00;2.80;;;19.00;94.10;;;;;;4993796;28;20569;-52
2021/07/06 07:36:00;;;;;;;5.25;2.45;;;19.00;94.00;;;;;;5010481;28;20128;-55
2021/07/06 07:38:26;;;;;;;5.80;2.83;;;19.00;93.90;;;;;;5009250;28;20038;-51
2021/07/06 07:40:53;;;;;;;5.85;2.40;;;19.00;94.00;;;;;;5009894;28;20565;-52
2021/07/06 07:43:18;;;;;;;6.10;2.47;;;19.10;93.60;;;;;;4993856;28;20084;-54
2021/07/06 07:45:44;;;;;;;5.80;2.80;;;19.20;93.60;;;;;;5010239;28;20125;-54
2021/07/06 07:48:12;;;;;;;5.03;2.45;;;19.20;93.50;;;;;;5011290;28;20215;-53
2021/07/06 07:50:39;;;;;;;6.40;2.88;;;19.30;93.50;;;;;;5000585;28;20436;-52
2021/07/06 07:53:05;;;;;;;6.60;2.50;;;19.30;93.20;;;;;;5004729;28;20044;-54
2021/07/06 07:55:31;;;;;;;4.35;2.40;;;19.40;93.30;;;;;;5003797;28;20056;-51
2021/07/06 07:57:57;;;;;;;3.65;2.08;;;19.50;93.00;;;;;;5010675;28;20030;-54
2021/07/06 08:00:23;;;;;;;7.32;2.55;;;19.50;92.80;;;;;;5010630;28;20065;-53
2021/07/06 08:02:49;;;;;;;3.47;2.28;;;19.50;92.70;;;;;;5009860;28;20037;-51
2021/07/06 08:05:15;;;;;;;2.85;2.10;;;19.60;92.70;;;;;;5003519;28;20053;-52
2021/07/06 08:07:41;;;;;;;3.00;2.30;;;19.50;92.60;;;;;;4994865;28;20069;-50
2021/07/06 08:10:08;;;;;;;4.05;2.20;;;19.60;92.20;;;;;;5006856;28;20050;-52
2021/07/06 08:12:34;;;;;;;5.55;2.60;;;19.60;92.20;;;;;;5008432;28;20478;-48
2021/07/06 08:14:59;;;;;;;5.07;2.20;;;19.60;92.20;;;;;;5010285;28;20184;-50
2021/07/06 08:17:26;;;;;;;3.65;1.95;;;19.60;92.30;;;;;;5011175;28;20041;-51
2021/07/06 08:19:59;;;;;;;3.60;2.33;;;19.70;92.20;;;;;;5007223;28;20562;-48
2021/07/06 08:22:27;;;;;;;5.53;2.28;;;19.70;92.20;;;;;;5010173;28;20083;-52
2021/07/06 08:24:53;;;;;;;4.80;2.33;;;19.80;92.10;;;;;;5010574;28;20501;-51
2021/07/06 08:27:19;;;;;;;5.35;2.20;;;19.80;91.90;;;;;;5013622;28;20088;-53
2021/07/06 08:29:46;;;;;;;4.25;2.25;;;19.80;91.60;;;;;;5013571;28;20053;-49
2021/07/06 08:32:14;;;;;;;3.58;1.90;;;19.90;91.70;;;;;;5000177;28;20050;-52
2021/07/06 08:34:39;;;;;;;4.32;2.22;;;19.90;91.60;;;;;;5013740;28;20037;-54
2021/07/06 08:37:05;;;;;;;2.83;2.00;;;20.00;91.70;;;;;;5014485;28;20104;-48
2021/07/06 08:39:31;;;;;;;3.00;1.90;;;20.00;91.40;;;;;;5014283;28;20045;-54
2021/07/06 08:41:57;;;;;;;3.55;1.80;;;20.10;91.00;;;;;;5018415;28;20041;-51
2021/07/06 08:44:23;;;;;;;3.25;1.88;;;20.10;90.80;;;;;;5018383;28;20121;-54
2021/07/06 08:46:50;;;;;;;4.88;1.90;;;20.20;90.10;;;;;;5015956;28;20038;-54
2021/07/06 08:49:19;;;;;;;4.72;1.90;;;20.20;90.30;;;;;;5012896;28;20503;-52
2021/07/06 08:51:49;;;;;;;4.35;1.73;;;20.20;90.20;;;;;;5011234;28;20038;-52
2021/07/06 08:54:15;;;;;;;4.53;2.00;;;20.20;89.80;;;;;;5014391;28;20049;-52
2021/07/06 08:56:41;;;;;;;3.22;1.65;;;20.20;90.00;;;;;;5013568;28;20561;-53
2021/07/06 08:59:07;;;;;;;1.60;1.50;;;20.20;89.20;;;;;;5013243;28;20038;-54
2021/07/06 09:01:32;;;;;;;4.07;2.20;;;20.20;88.90;;;;;;5012609;28;20054;-55
2021/07/06 09:04:02;;;;;;;4.35;1.70;;;20.20;88.90;;;;;;5008268;28;20042;-54
2021/07/06 09:06:29;;;;;;;2.45;1.80;;;20.30;88.30;;;;;;5009197;28;20042;-55
2021/07/06 09:09:18;;;;;;;3.47;1.60;;;20.40;87.10;;;;;;5013922;28;20044;-51
2021/07/06 09:11:50;;;;;;;3.05;1.50;;;20.40;87.30;;;;;;5012909;28;20046;-53
2021/07/06 09:14:17;;;;;;;4.78;1.90;;;20.50;86.20;;;;;;5014131;28;20045;-51
2021/07/06 09:16:43;;;;;;;4.75;1.70;;;20.50;87.10;;;;;;5013906;28;20045;-55
2021/07/06 09:19:24;;;;;;;2.55;1.50;;;20.70;87.10;;;;;;5013683;28;20053;-50
2021/07/06 09:22:08;;;;;;;3.08;1.50;;;20.80;87.40;;;;;;5013326;28;20120;-54
2021/07/06 09:24:34;;;;;;;3.20;1.42;;;21.00;87.00;;;;;;5013824;28;20050;-55
2021/07/06 09:27:24;;;;;;;2.80;1.70;;;21.10;83.70;;;;;;5013798;28;20482;-55
2021/07/06 09:30:14;;;;;;;3.30;1.63;;;21.30;83.30;;;;;;5012638;28;20405;-53
2021/07/06 09:32:54;;;;;;;1.40;1.30;;;21.40;83.70;;;;;;5013663;28;20509;-51
2021/07/06 09:35:24;;;;;;;5.65;1.50;;;21.50;83.40;;;;;;5013488;28;20483;-53
2021/07/06 09:37:59;;;;;;;4.07;1.60;;;21.60;82.40;;;;;;5007036;28;20030;-53
2021/07/06 09:40:26;;;;;;;2.40;1.40;;;21.70;83.60;;;;;;5013621;28;20044;-54
2021/07/06 09:43:20;;;;;;;2.47;1.70;;;21.80;83.20;;;;;;5007643;28;20391;-55
2021/07/06 09:45:52;;;;;;;4.20;1.55;;;21.80;80.60;;;;;;4996227;28;20064;-53
2021/07/06 09:48:18;;;;;;;5.85;1.60;;;21.80;80.10;;;;;;5013795;28;20503;-55
2021/07/06 09:50:44;;;;;;;4.63;1.60;;;21.60;79.70;;;;;;5014571;28;20034;-54
2021/07/06 09:53:27;;;;;;;7.30;1.63;;;21.60;79.00;;;;;;5013389;28;20046;-53
2021/07/06 09:55:54;;;;;;;3.63;1.40;;;21.50;79.10;;;;;;5012985;28;20053;-54
2021/07/06 09:58:20;;;;;;;3.08;1.30;;;21.40;80.70;;;;;;5000958;28;20049;-54
2021/07/06 10:00:48;;;;;;;2.13;1.50;;;21.40;81.20;;;;;;4996126;28;20054;-53
2021/07/06 10:03:15;;;;;;;3.05;1.27;;;21.50;79.30;;;;;;5013466;28;20049;-51
2021/07/06 10:05:43;;;;;;;2.15;1.30;;;21.50;81.10;;;;;;5011503;28;20054;-53
2021/07/06 10:08:11;;;;;;;3.13;1.20;;;21.60;80.90;;;;;;5011669;28;20030;-52
2021/07/06 10:10:38;;;;;;;2.70;1.23;;;21.80;78.80;;;;;;5013179;28;20045;-48
2021/07/06 10:13:04;;;;;;;6.13;1.48;;;22.00;77.50;;;;;;4964231;28;20445;-51
2021/07/06 10:15:31;;;;;;;3.30;1.10;;;22.20;76.40;;;;;;4979571;28;20112;-50
2021/07/06 10:17:57;;;;;;;3.17;1.35;;;22.30;77.80;;;;;;5012587;28;20421;-52
2021/07/06 10:20:26;;;;;;;3.90;1.30;;;22.20;75.80;;;;;;5013178;28;20042;-52
2021/07/06 10:22:54;;;;;;;3.35;1.33;;;22.10;76.20;;;;;;5012777;28;20064;-51
2021/07/06 10:25:35;;;;;;;4.53;1.23;;;21.90;77.70;;;;;;5012612;28;20045;-55
2021/07/06 10:28:05;;;;;;;6.75;1.38;;;21.70;77.60;;;;;;5012367;28;20045;-55
2021/07/06 10:30:38;;;;;;;4.35;1.40;;;21.50;77.70;;;;;;5012427;28;20069;-53
2021/07/06 10:33:06;;;;;;;4.15;1.42;;;21.30;78.50;;;;;;5012360;28;20084;-49
2021/07/06 10:35:39;;;;;;;4.07;1.50;;;21.10;78.60;;;;;;5011585;28;20427;-52
2021/07/06 10:38:28;;;;;;;4.65;1.92;;;20.90;78.50;;;;;;5012112;28;20418;-51
2021/07/06 10:41:00;;;;;;;5.50;1.50;;;20.80;79.00;;;;;;5013744;28;20038;-53
2021/07/06 10:43:52;;;;;;;4.60;1.55;;;20.70;78.70;;;;;;5002229;28;20450;-53
2021/07/06 10:46:20;;;;;;;3.30;1.40;;;20.80;79.60;;;;;;5007196;28;20073;-52
2021/07/06 10:48:47;;;;;;;2.75;1.40;;;21.00;79.30;;;;;;5014907;28;20041;-52
2021/07/06 10:51:34;;;;;;;4.22;1.50;;;21.20;78.60;;;;;;5011794;28;20034;-55
2021/07/06 10:54:08;;;;;;;2.45;1.30;;;21.40;79.20;;;;;;5020353;28;20049;-55
2021/07/06 10:56:39;;;;;;;2.35;1.40;;;21.60;78.00;;;;;;5018373;28;20046;-55
2021/07/06 10:59:16;;;;;;;5.53;1.50;;;21.90;76.70;;;;;;5028835;28;20038;-53
2021/07/06 11:01:45;;;;;;;3.63;1.38;;;21.90;76.40;;;;;;5016801;28;20034;-55
2021/07/06 11:04:13;;;;;;;2.00;1.30;;;21.90;75.80;;;;;;5014333;28;20046;-55
2021/07/06 11:06:45;;;;;;;6.07;1.30;;;22.00;74.80;;;;;;5016199;28;20042;-53
2021/07/06 11:09:12;;;;;;;3.00;1.30;;;22.00;74.70;;;;;;5015492;28;20033;-55
2021/07/06 11:11:39;;;;;;;3.35;1.38;;;22.00;73.80;;;;;;5004505;28;20030;-51
2021/07/06 11:14:24;;;;;;;3.72;1.38;;;22.00;74.80;;;;;;5014597;28;20042;-53
2021/07/06 11:17:02;;;;;;;5.75;1.27;;;22.00;73.80;;;;;;5014620;28;20038;-53
2021/07/06 11:19:33;;;;;;;5.25;1.25;;;22.00;73.70;;;;;;5000493;28;20053;-53
2021/07/06 11:22:13;;;;;;;6.25;1.65;;;22.00;73.30;;;;;;5011485;28;20072;-53
2021/07/06 11:24:43;;;;;;;5.15;1.35;;;22.20;73.40;;;;;;5018485;28;20042;-50
2021/07/06 11:27:12;;;;;;;6.65;1.48;;;22.30;73.00;;;;;;5021343;28;20061;-51
2021/07/06 11:29:40;;;;;;;2.05;1.38;;;22.40;72.00;;;;;;5018800;28;20034;-55
2021/07/06 11:32:18;;;;;;;3.33;1.38;;;22.40;72.40;;;;;;5020117;28;20046;-51
2021/07/06 11:34:46;;;;;;;2.88;1.40;;;22.40;72.80;;;;;;5018171;28;20046;-52
2021/07/06 11:37:15;;;;;;;4.40;1.42;;;22.50;72.00;;;;;;5021318;28;20426;-54
2021/07/06 11:39:41;;;;;;;3.70;1.33;;;22.60;69.90;;;;;;5017586;28;20095;-55
2021/07/06 11:42:08;;;;;;;4.50;1.60;;;22.70;70.30;;;;;;5018633;28;20038;-54
2021/07/06 11:44:43;;;;;;;3.42;1.40;;;22.80;69.40;;;;;;5019166;28;20061;-54
2021/07/06 11:47:17;;;;;;;2.72;1.40;;;22.90;66.80;;;;;;5017324;28;20042;-52
2021/07/06 11:49:43;;;;;;;3.83;1.38;;;23.00;65.20;;;;;;5018893;28;20455;-50
2021/07/06 11:52:09;;;;;;;7.10;1.67;;;23.10;65.00;;;;;;5021732;28;20034;-55
2021/07/06 11:54:35;;;;;;;4.10;1.50;;;23.10;65.50;;;;;;5010899;28;20042;-55
2021/07/06 11:57:06;;;;;;;2.85;1.30;;;23.10;66.60;;;;;;5019005;28;20101;-53
2021/07/06 11:59:33;;;;;;;5.50;1.30;;;23.00;66.50;;;;;;5026444;28;20111;-55
2021/07/06 12:02:04;;;;;;;5.88;1.30;;;22.80;68.00;;;;;;4990950;28;20045;-53
2021/07/06 12:04:33;;;;;;;3.10;1.27;;;22.80;67.90;;;;;;5003005;28;20038;-54
2021/07/06 12:07:07;;;;;;;6.55;1.30;;;22.70;68.00;;;;;;5023893;28;20042;-52
2021/07/06 12:09:34;;;;;;;4.32;1.23;;;22.50;67.80;;;;;;5022613;28;20053;-55
2021/07/06 12:12:30;;;;;;;3.42;1.20;;;22.30;68.60;;;;;;5024670;28;20275;-55
2021/07/06 12:14:55;;;;;;;3.72;1.10;;;22.20;69.40;;;;;;5033388;28;20128;-55
2021/07/06 12:17:22;;;;;;;2.47;1.20;;;22.30;69.20;;;;;;4986570;28;20033;-52
2021/07/06 12:19:48;;;;;;;5.75;1.85;;;22.30;69.40;;;;;;5027070;28;20037;-55
2021/07/06 12:22:20;;;;;;;9.40;1.70;;;22.30;70.20;;;;;;5021324;28;20069;-54
2021/07/06 12:24:46;;;;;;;6.72;1.40;;;22.40;70.80;;;;;;5022459;28;20057;-54
2021/07/06 12:27:17;;;;;;;2.10;1.30;;;22.70;70.60;;;;;;5029943;28;20487;-55
2021/07/06 12:29:52;;;;;;;3.78;1.15;;;22.60;68.70;;;;;;5023463;28;20415;-55
2021/07/06 12:32:18;;;;;;;3.30;1.40;;;22.70;68.30;;;;;;5012432;28;20038;-51
2021/07/06 12:34:46;;;;;;;6.88;1.60;;;22.60;67.80;;;;;;5026805;28;20045;-54
2021/07/06 12:37:15;;;;;;;7.78;1.73;;;22.40;67.20;;;;;;5030786;28;20033;-52
2021/07/06 12:39:42;;;;;;;6.35;1.58;;;22.30;66.80;;;;;;5021726;28;20041;-52
2021/07/06 12:42:11;;;;;;;9.43;1.50;;;22.30;68.10;;;;;;4994763;28;20061;-55
2021/07/06 12:44:47;;;;;;;5.45;1.30;;;22.40;67.80;;;;;;5005965;28;20053;-53
2021/07/06 12:47:23;;;;;;;5.57;1.50;;;22.60;68.30;;;;;;5025300;28;20498;-54
2021/07/06 12:49:51;;;;;;;6.35;1.80;;;22.80;67.30;;;;;;5016110;28;20046;-54